Navigator Of The Seas — C6FU4 — position and weather

sailwx.info

Track history (hours):
 
Tides and Currents Weather Stations Pressure Air Temp Water Temp Dewpoint Dewpoint Depression Visibility Wind Speed Wind Dir Waves Ship Positions

Navigator Of The Seas

Operator: Royal Caribbean Cruises Ltd

Last reported at 2020-Jan-28 07:00 UTC. Time now 2020-Jan-28 20:36 UTC.
Position N 25°54' W 078°00'.

Type: Passenger vessel. MMSI: 311478000.

Wind from 250 at 14 knots

Barometer 1018.2 mb
Air temperature 21.0 ° C
Visibility: greater than 10.8 NM
Water temperature 24.0 ° C

Date/timePositionNaut miles runAvg speedWind from/ knotsBaromVisibWave heightAir tempDewpointWater temp
2020-Jan-28 07:00N 25°54' W 078°00'9613.7 250 / 141018.210.8 21.0 24.0
2020-Jan-28 00:00N 25°54' W 079°47'2311.5
2020-Jan-27 22:01N 25°47' W 080°11'1 0.3
2020-Jan-27 17:58N 25°46' W 080°10'0 0.0
2020-Jan-27 16:58N 25°46' W 080°10'0 0.0
2020-Jan-27 16:28N 25°46' W 080°10'0 0.0
2020-Jan-27 15:28N 25°46' W 080°10'0 0.0
2020-Jan-27 12:28N 25°46' W 080°10'0 0.0
2020-Jan-27 11:58N 25°46' W 080°10'0 0.0
2020-Jan-27 11:28N 25°46' W 080°10'36 8.1
2020-Jan-27 07:00N 25°54' W 079°30'1110.9 330 / 61022.210.8 19.0 26.0
2020-Jan-27 06:00N 26°04' W 079°24'110 5.0
2020-Jan-26 08:00N 25°42' W 077°24'30 1.2 330 / 101023.210.8 20.0 24.0
2020-Jan-25 07:00N 25°54' W 077°54'8313.9 160 / 61023.210.8 19.0 24.0
2020-Jan-25 01:00N 26°01' W 079°26'714.7
2020-Jan-25 00:30N 25°58' W 079°34'2114.1
2020-Jan-24 23:00N 25°50' W 079°55'13 5.1
2020-Jan-24 20:28N 25°46' W 080°09'0 0.0
2020-Jan-24 19:58N 25°46' W 080°09'0 0.0
2020-Jan-24 19:28N 25°46' W 080°09'0 0.0
2020-Jan-24 16:00N 25°46' W 080°09'0 0.0
2020-Jan-24 15:00N 25°46' W 080°09'0 0.0
2020-Jan-24 14:00N 25°46' W 080°09'0 0.0
2020-Jan-24 12:00N 25°46' W 080°09'0 0.0
2020-Jan-24 11:00N 25°46' W 080°09'0 0.0
2020-Jan-24 10:30N 25°46' W 080°09'2 3.1
2020-Jan-24 10:00N 25°47' W 080°11'23 9.0
2020-Jan-24 07:30N 25°54' W 079°47'510.6
2020-Jan-24 07:00N 25°57' W 079°42'6570.0
2020-Jan-24 07:00N 25°54' W 079°36'87 3.8 090 / 151021.210.8 20.0 24.0
2020-Jan-23 08:00N 26°00' W 078°00'6 0.1 040 / 171022.210.8 18.0 24.0
2020-Jan-21 07:00N 25°54' W 078°00'6715.2 340 / 201023.210.8 18.0 24.0
2020-Jan-21 02:33N 26°08' W 079°13'1514.5
2020-Jan-21 01:30N 26°01' W 079°29'714.5
2020-Jan-21 01:00N 25°56' W 079°34'33 7.9
2020-Jan-20 20:49N 25°46' W 080°10'0 0.0
2020-Jan-20 18:22N 25°46' W 080°10'0 0.0
2020-Jan-20 16:52N 25°46' W 080°10'0 0.0
2020-Jan-20 14:55N 25°46' W 080°10'0 0.0
2020-Jan-20 13:28N 25°46' W 080°10'0 0.0
2020-Jan-20 11:58N 25°46' W 080°10'0 0.0
2020-Jan-20 10:58N 25°46' W 080°10'11 7.2
2020-Jan-20 09:30N 25°48' W 079°58'5 9.4
2020-Jan-20 09:00N 25°49' W 079°53'2210.9
2020-Jan-20 07:00N 26°01' W 079°33'1211.9
2020-Jan-20 06:00N 26°09' W 079°24'6541.1
2020-Jan-20 06:00N 26°06' W 079°18'714.0 270 / 181024.210.8 20.0 24.0
2020-Jan-20 05:30N 26°13' W 079°18'109 4.8
2020-Jan-19 07:00N 25°36' W 077°24'5 0.2 130 / 131029.310.8 20.0 24.0
2020-Jan-18 09:00N 25°36' W 077°30'   060 / 391030.310.8 19.0 24.0
Track history (hours):
 
Tides and Currents Weather Stations Pressure Air Temp Water Temp Dewpoint Dewpoint Depression Visibility Wind Speed Wind Dir Waves Ship Positions

Navigator Of The Seas

Operator: Royal Caribbean Cruises Ltd

Last reported at 2020-Jan-28 07:00 UTC. Time now 2020-Jan-28 20:36 UTC.
Position N 25°54' W 078°00'.

Type: Passenger vessel. MMSI: 311478000.

Wind from 250 at 14 knots

Barometer 1018.2 mb
Air temperature 21.0 ° C
Visibility: greater than 10.8 NM
Water temperature 24.0 ° C

Date/timePositionNaut miles runAvg speedWind from/ knotsBaromVisibWave heightAir tempDewpointWater temp
2020-Jan-28 07:00N 25°54' W 078°00'9613.7 250 / 141018.210.8 21.0 24.0
2020-Jan-28 00:00N 25°54' W 079°47'2311.5
2020-Jan-27 22:01N 25°47' W 080°11'1 0.3
2020-Jan-27 17:58N 25°46' W 080°10'0 0.0
2020-Jan-27 16:58N 25°46' W 080°10'0 0.0
2020-Jan-27 16:28N 25°46' W 080°10'0 0.0
2020-Jan-27 15:28N 25°46' W 080°10'0 0.0
2020-Jan-27 12:28N 25°46' W 080°10'0 0.0
2020-Jan-27 11:58N 25°46' W 080°10'0 0.0
2020-Jan-27 11:28N 25°46' W 080°10'36 8.1
2020-Jan-27 07:00N 25°54' W 079°30'1110.9 330 / 61022.210.8 19.0 26.0
2020-Jan-27 06:00N 26°04' W 079°24'110 5.0
2020-Jan-26 08:00N 25°42' W 077°24'30 1.2 330 / 101023.210.8 20.0 24.0
2020-Jan-25 07:00N 25°54' W 077°54'8313.9 160 / 61023.210.8 19.0 24.0
2020-Jan-25 01:00N 26°01' W 079°26'714.7
2020-Jan-25 00:30N 25°58' W 079°34'2114.1
2020-Jan-24 23:00N 25°50' W 079°55'13 5.1
2020-Jan-24 20:28N 25°46' W 080°09'0 0.0
2020-Jan-24 19:58N 25°46' W 080°09'0 0.0
2020-Jan-24 19:28N 25°46' W 080°09'0 0.0
2020-Jan-24 16:00N 25°46' W 080°09'0 0.0
2020-Jan-24 15:00N 25°46' W 080°09'0 0.0
2020-Jan-24 14:00N 25°46' W 080°09'0 0.0
2020-Jan-24 12:00N 25°46' W 080°09'0 0.0
2020-Jan-24 11:00N 25°46' W 080°09'0 0.0
2020-Jan-24 10:30N 25°46' W 080°09'2 3.1
2020-Jan-24 10:00N 25°47' W 080°11'23 9.0
2020-Jan-24 07:30N 25°54' W 079°47'510.6
2020-Jan-24 07:00N 25°57' W 079°42'6570.0
2020-Jan-24 07:00N 25°54' W 079°36'87 3.8 090 / 151021.210.8 20.0 24.0
2020-Jan-23 08:00N 26°00' W 078°00'6 0.1 040 / 171022.210.8 18.0 24.0
2020-Jan-21 07:00N 25°54' W 078°00'6715.2 340 / 201023.210.8 18.0 24.0
2020-Jan-21 02:33N 26°08' W 079°13'1514.5
2020-Jan-21 01:30N 26°01' W 079°29'714.5
2020-Jan-21 01:00N 25°56' W 079°34'33 7.9
2020-Jan-20 20:49N 25°46' W 080°10'0 0.0
2020-Jan-20 18:22N 25°46' W 080°10'0 0.0
2020-Jan-20 16:52N 25°46' W 080°10'0 0.0
2020-Jan-20 14:55N 25°46' W 080°10'0 0.0
2020-Jan-20 13:28N 25°46' W 080°10'0 0.0
2020-Jan-20 11:58N 25°46' W 080°10'0 0.0
2020-Jan-20 10:58N 25°46' W 080°10'11 7.2
2020-Jan-20 09:30N 25°48' W 079°58'5 9.4
2020-Jan-20 09:00N 25°49' W 079°53'2210.9
2020-Jan-20 07:00N 26°01' W 079°33'1211.9
2020-Jan-20 06:00N 26°09' W 079°24'6541.1
2020-Jan-20 06:00N 26°06' W 079°18'714.0 270 / 181024.210.8 20.0 24.0
2020-Jan-20 05:30N 26°13' W 079°18'109 4.8
2020-Jan-19 07:00N 25°36' W 077°24'5 0.2 130 / 131029.310.8 20.0 24.0
2020-Jan-18 09:00N 25°36' W 077°30'   060 / 391030.310.8 19.0 24.0

Dump ship's entire track history